Terminal Aerodrome Forecast
Issued by NWS St Louis, MO

Home | Current Version | Previous Version | Graphics & Text | Print | Product List | Glossary On
Versions: 1 2 3 4 5 6 7 8 9 10 11 12 13 14 15 16 17 18 19 20 21 22 23 24
000
FTUS43 KLSX 291347 AAA
TAFSTL
TAF AMD
KSTL 291347Z 2914/3018 34010KT P6SM BKN018
     FM291600 34011KT P6SM BKN025
     FM291900 35007KT P6SM BKN040
     FM300400 35007KT P6SM BKN030
     FM300700 35009KT P6SM BKN015=

USA.gov is the U.S. government's official web portal to all federal, state and local government web resources and services.